Time;durP1;ratioP1;P1;durP2;ratioP2;P2;SDS_P1;SDS_P2;PMS_P1;PMS_P2;Temp;Humidity;BMP_temperature;BMP_pressure;BME280_temperature;BME280_humidity;BME280_pressure;Samples;Min_cycle;Max_cycle;Signal;HPM_P1;HPM_P2
2024/04/12 00:01:10;;;;;;;24.60;15.00;;;15.70;99.90;;;;;;7286317;19;20180;-80
2024/04/12 00:03:39;;;;;;;20.97;13.93;;;15.80;99.90;;;;;;7284552;19;20226;-80
2024/04/12 00:06:14;;;;;;;23.40;13.70;;;15.90;99.90;;;;;;7285861;19;20924;-80
2024/04/12 00:08:42;;;;;;;23.07;13.03;;;15.90;99.90;;;;;;7281885;19;20252;-78
2024/04/12 00:11:08;;;;;;;21.00;12.30;;;15.80;99.90;;;;;;7307750;19;20181;-79
2024/04/12 00:13:40;;;;;;;18.87;12.20;;;15.80;99.90;;;;;;7284966;19;20184;-80
2024/04/12 00:16:08;;;;;;;22.20;11.70;;;15.80;99.90;;;;;;7284700;19;20196;-80
2024/04/12 00:18:36;;;;;;;22.23;11.30;;;15.80;99.90;;;;;;7285869;19;20267;-80
2024/04/12 00:21:03;;;;;;;20.23;11.20;;;15.90;99.90;;;;;;7285712;19;20602;-79
2024/04/12 00:23:35;;;;;;;19.70;11.10;;;16.00;99.90;;;;;;7283776;19;20542;-79
2024/04/12 00:26:02;;;;;;;18.77;11.23;;;16.10;99.90;;;;;;7285665;19;20185;-80
2024/04/12 00:28:32;;;;;;;19.50;10.57;;;16.20;99.90;;;;;;7284454;19;20189;-80
2024/04/12 00:31:02;;;;;;;18.03;10.80;;;16.30;99.90;;;;;;7285351;19;20550;-80
2024/04/12 00:33:32;;;;;;;17.00;9.73;;;16.30;99.90;;;;;;7284365;19;20216;-80
2024/04/12 00:36:08;;;;;;;21.07;10.10;;;16.40;99.90;;;;;;7283925;19;20531;-79
2024/04/12 00:38:41;;;;;;;17.23;10.40;;;16.50;99.90;;;;;;7284973;19;20188;-80
2024/04/12 00:41:13;;;;;;;16.17;9.53;;;16.50;99.90;;;;;;7284161;19;20193;-80
2024/04/12 00:43:45;;;;;;;18.20;10.27;;;16.50;99.90;;;;;;7283265;19;20193;-79
2024/04/12 00:46:40;;;;;;;20.80;10.70;;;16.40;99.90;;;;;;7275493;19;20196;-79
2024/04/12 00:49:06;;;;;;;16.37;9.53;;;16.40;99.90;;;;;;7285739;19;20292;-80
2024/04/12 00:51:33;;;;;;;17.10;9.90;;;16.40;99.90;;;;;;7282910;19;20191;-80
2024/04/12 00:54:02;;;;;;;16.43;9.53;;;16.50;99.90;;;;;;7284712;19;20220;-80
2024/04/12 00:56:29;;;;;;;16.07;9.43;;;16.50;99.90;;;;;;7282403;19;20212;-80
2024/04/12 00:58:59;;;;;;;20.07;10.00;;;16.40;99.90;;;;;;7283152;19;20207;-79
2024/04/12 01:01:26;;;;;;;15.50;9.37;;;16.40;99.90;;;;;;7282791;19;20863;-79
2024/04/12 01:03:55;;;;;;;17.40;9.50;;;16.40;99.90;;;;;;7285651;19;20187;-79
2024/04/12 01:06:30;;;;;;;18.77;10.40;;;16.40;99.90;;;;;;7283683;19;20237;-80
2024/04/12 01:09:04;;;;;;;18.07;10.27;;;16.40;99.90;;;;;;7283345;19;20195;-80
2024/04/12 01:11:31;;;;;;;21.00;10.13;;;16.40;99.90;;;;;;7283873;19;20209;-80
2024/04/12 01:13:58;;;;;;;18.93;9.70;;;16.40;99.90;;;;;;7283662;19;20203;-79
2024/04/12 01:16:24;;;;;;;19.30;9.63;;;16.40;99.90;;;;;;7283913;19;20188;-80
2024/04/12 01:18:55;;;;;;;19.13;9.83;;;16.40;99.90;;;;;;7281213;19;20710;-80
2024/04/12 01:21:27;;;;;;;16.33;8.60;;;16.30;99.90;;;;;;7284220;19;20204;-80
2024/04/12 01:23:55;;;;;;;17.17;8.77;;;16.10;99.90;;;;;;7284435;19;20193;-79
2024/04/12 01:26:23;;;;;;;18.43;9.53;;;16.00;99.90;;;;;;7282813;19;20252;-79
2024/04/12 01:28:54;;;;;;;21.13;9.00;;;16.00;99.90;;;;;;7280442;19;20188;-79
2024/04/12 01:31:20;;;;;;;17.23;8.80;;;15.90;99.90;;;;;;7282719;19;20201;-79
2024/04/12 01:33:50;;;;;;;17.67;9.00;;;15.80;99.90;;;;;;7282172;19;20207;-79
2024/04/12 01:36:21;;;;;;;19.97;10.73;;;15.90;99.90;;;;;;7282556;19;20211;-79
2024/04/12 01:38:54;;;;;;;21.60;10.27;;;16.00;99.90;;;;;;7281916;19;20264;-79
2024/04/12 01:41:32;;;;;;;20.57;10.53;;;16.00;99.90;;;;;;7284233;19;20740;-80
2024/04/12 01:44:06;;;;;;;20.10;10.90;;;16.00;99.90;;;;;;7283209;19;20177;-80
2024/04/12 01:46:39;;;;;;;23.00;11.80;;;16.00;99.90;;;;;;7281073;19;20218;-79
2024/04/12 01:49:10;;;;;;;24.37;11.90;;;15.90;99.90;;;;;;7283930;19;20183;-79
2024/04/12 01:51:37;;;;;;;22.50;12.03;;;15.80;99.90;;;;;;7283118;19;20702;-79
2024/04/12 01:54:21;;;;;;;23.33;12.50;;;15.80;99.90;;;;;;7283433;19;20269;-79
2024/04/12 01:56:47;;;;;;;24.63;12.40;;;15.90;99.90;;;;;;7178607;19;2005035;-79
2024/04/12 01:59:23;;;;;;;22.93;12.93;;;15.90;99.90;;;;;;7282877;19;20207;-79
2024/04/12 02:01:52;;;;;;;25.70;13.00;;;16.00;99.90;;;;;;7284116;19;20187;-79
2024/04/12 02:04:18;;;;;;;26.17;13.07;;;16.00;99.90;;;;;;7281620;19;20276;-79
2024/04/12 02:06:51;;;;;;;28.07;13.37;;;16.00;99.90;;;;;;7280559;19;20863;-79
2024/04/12 02:09:19;;;;;;;23.10;13.10;;;16.10;99.90;;;;;;7289358;19;20563;-79
2024/04/12 02:11:46;;;;;;;26.23;14.00;;;16.10;99.90;;;;;;7289733;19;20187;-79
2024/04/12 02:14:13;;;;;;;29.53;13.87;;;16.20;99.90;;;;;;7293388;19;20228;-79
2024/04/12 02:16:41;;;;;;;24.17;13.03;;;16.30;99.90;;;;;;7310062;19;20196;-79
2024/04/12 02:19:10;;;;;;;30.97;14.47;;;16.40;99.90;;;;;;7289707;19;20206;-79
2024/04/12 02:21:38;;;;;;;28.17;14.67;;;16.40;99.90;;;;;;7290374;19;20187;-79
2024/04/12 02:24:05;;;;;;;31.23;14.57;;;16.50;99.90;;;;;;7280849;19;20192;-80
2024/04/12 02:26:32;;;;;;;28.10;14.53;;;16.40;99.90;;;;;;7288045;19;20202;-79
2024/04/12 02:29:01;;;;;;;31.30;14.70;;;16.40;99.90;;;;;;7288373;19;20223;-80
2024/04/12 02:31:31;;;;;;;26.20;14.23;;;16.50;99.90;;;;;;7288689;19;20221;-80
2024/04/12 02:33:58;;;;;;;31.50;15.00;;;16.60;99.90;;;;;;7286381;19;20651;-79
2024/04/12 02:36:30;;;;;;;30.13;14.67;;;16.60;99.90;;;;;;7287783;19;20217;-79
2024/04/12 02:38:57;;;;;;;26.40;15.00;;;16.60;99.90;;;;;;7289118;19;20184;-79
2024/04/12 02:41:23;;;;;;;27.53;14.70;;;16.60;99.90;;;;;;7289034;19;20188;-79
2024/04/12 02:43:52;;;;;;;28.73;15.53;;;16.60;99.90;;;;;;7283891;19;20200;-79
2024/04/12 02:46:23;;;;;;;31.30;15.10;;;16.50;99.90;;;;;;7288613;19;20741;-79
2024/04/12 02:48:49;;;;;;;28.10;14.63;;;16.50;99.90;;;;;;7288081;19;21045;-79
2024/04/12 02:51:18;;;;;;;29.00;14.63;;;16.60;99.90;;;;;;7287082;19;20207;-79
2024/04/12 02:53:45;;;;;;;27.13;14.63;;;16.40;99.90;;;;;;7286307;19;20192;-78
2024/04/12 02:56:14;;;;;;;26.67;14.13;;;16.40;99.90;;;;;;7309380;19;20251;-78
2024/04/12 02:58:41;;;;;;;26.80;14.87;;;16.40;99.90;;;;;;7286941;19;20195;-79
2024/04/12 03:01:12;;;;;;;25.33;14.07;;;16.40;99.90;;;;;;7285856;19;20255;-79
2024/04/12 03:03:46;;;;;;;25.40;14.20;;;16.20;99.90;;;;;;7287757;19;20199;-79
2024/04/12 03:06:14;;;;;;;28.73;14.20;;;16.10;99.90;;;;;;7269343;19;20188;-79
2024/04/12 03:08:47;;;;;;;26.93;14.07;;;16.00;99.90;;;;;;7309018;19;20669;-79
2024/04/12 03:11:21;;;;;;;25.70;13.17;;;15.90;99.90;;;;;;7263613;19;20188;-78
2024/04/12 03:14:03;;;;;;;27.50;14.20;;;15.90;99.90;;;;;;7286494;19;20294;-79
2024/04/12 03:16:32;;;;;;;30.03;13.77;;;15.80;99.90;;;;;;7286264;19;20202;-79
2024/04/12 03:18:58;;;;;;;24.13;13.37;;;15.80;99.90;;;;;;7283681;19;20190;-79
2024/04/12 03:21:26;;;;;;;21.70;12.53;;;15.80;99.90;;;;;;7284391;19;20205;-79
2024/04/12 03:23:54;;;;;;;20.77;11.93;;;15.70;99.90;;;;;;7286292;19;20710;-79
2024/04/12 03:26:24;;;;;;;26.30;12.30;;;15.70;99.90;;;;;;7287576;19;20193;-79
2024/04/12 03:28:54;;;;;;;22.50;11.50;;;15.70;99.90;;;;;;7286426;19;20183;-80
2024/04/12 03:31:21;;;;;;;21.60;11.40;;;15.80;99.90;;;;;;7285474;19;20223;-79
2024/04/12 03:33:47;;;;;;;20.63;10.97;;;15.80;99.90;;;;;;7286912;19;20266;-79
2024/04/12 03:36:26;;;;;;;20.03;10.97;;;15.80;99.90;;;;;;7286812;19;20318;-79
2024/04/12 03:41:43;;;;;;;21.03;10.57;;;15.80;99.90;;;;;;7272529;19;20694;-78
2024/04/12 03:44:13;;;;;;;24.10;10.47;;;15.80;99.90;;;;;;7308058;19;20213;-79
2024/04/12 03:46:44;;;;;;;20.80;10.47;;;15.70;99.90;;;;;;7286374;19;20579;-80
2024/04/12 03:49:16;;;;;;;20.00;10.43;;;15.70;99.90;;;;;;7284093;19;20626;-79
2024/04/12 03:51:46;;;;;;;21.20;10.00;;;15.70;99.90;;;;;;7276547;19;20210;-78
2024/04/12 03:54:18;;;;;;;19.90;10.00;;;15.60;99.90;;;;;;7286813;19;20194;-78
2024/04/12 03:56:51;;;;;;;21.47;10.37;;;15.60;99.90;;;;;;7284841;19;20202;-81
2024/04/12 03:59:27;;;;;;;22.33;11.50;;;15.60;99.90;;;;;;7285052;19;20188;-81
2024/04/12 04:01:54;;;;;;;21.00;10.93;;;15.50;99.90;;;;;;7286123;19;20193;-81
2024/04/12 04:04:25;;;;;;;27.43;10.97;;;15.50;99.90;;;;;;7284591;19;20652;-81
2024/04/12 04:06:55;;;;;;;23.30;12.07;;;15.50;99.90;;;;;;7285397;19;20697;-81
2024/04/12 04:09:27;;;;;;;27.80;12.93;;;15.40;99.90;;;;;;7286556;19;20183;-81
2024/04/12 04:11:54;;;;;;;25.47;12.80;;;15.40;99.90;;;;;;7286046;19;20195;-78
2024/04/12 04:14:26;;;;;;;23.17;12.17;;;15.40;99.90;;;;;;7283728;19;20206;-81
2024/04/12 04:16:55;;;;;;;25.80;12.73;;;15.30;99.90;;;;;;7282881;19;20241;-82
2024/04/12 04:19:31;;;;;;;23.90;12.63;;;15.30;99.90;;;;;;7283972;19;20204;-81
2024/04/12 04:22:05;;;;;;;26.23;13.40;;;15.40;99.90;;;;;;7286050;19;20198;-81
2024/04/12 04:24:34;;;;;;;26.37;13.40;;;15.50;99.90;;;;;;7283800;19;20654;-81
2024/04/12 04:27:08;;;;;;;25.20;13.13;;;15.60;99.90;;;;;;7282951;19;20198;-81
2024/04/12 04:29:35;;;;;;;26.53;14.10;;;15.70;99.90;;;;;;7283583;19;21103;-81
2024/04/12 04:32:01;;;;;;;26.40;12.60;;;15.70;99.90;;;;;;7282934;19;20289;-81
2024/04/12 04:34:27;;;;;;;24.50;12.43;;;15.80;99.90;;;;;;7284469;19;20263;-81
2024/04/12 04:36:56;;;;;;;26.30;12.90;;;15.90;99.90;;;;;;7282886;19;20226;-79
2024/04/12 04:39:24;;;;;;;27.80;13.43;;;16.00;99.90;;;;;;7284648;19;20214;-79
2024/04/12 04:41:51;;;;;;;23.27;12.93;;;16.10;99.90;;;;;;7283515;19;20210;-79
2024/04/12 04:44:17;;;;;;;24.23;12.93;;;16.10;99.90;;;;;;7282381;19;20219;-79
2024/04/12 04:46:48;;;;;;;25.17;12.20;;;16.10;99.90;;;;;;7283790;19;20189;-79
2024/04/12 04:49:16;;;;;;;26.93;11.37;;;16.30;99.90;;;;;;7283228;19;20214;-79
2024/04/12 04:51:42;;;;;;;19.87;12.33;;;16.20;99.90;;;;;;7297978;19;20207;-79
2024/04/12 04:54:13;;;;;;;21.67;11.83;;;16.20;99.90;;;;;;7305234;19;20192;-79
2024/04/12 04:56:46;;;;;;;24.70;11.83;;;16.20;99.90;;;;;;7288296;19;20204;-79
2024/04/12 04:59:17;;;;;;;20.90;11.57;;;16.10;99.90;;;;;;7275067;19;20659;-80
2024/04/12 05:01:44;;;;;;;22.57;11.60;;;16.20;99.90;;;;;;7284669;19;20192;-80
2024/04/12 05:04:15;;;;;;;23.40;11.40;;;16.30;99.90;;;;;;7305856;19;20223;-80
2024/04/12 05:06:42;;;;;;;23.90;11.57;;;16.30;99.90;;;;;;7283381;19;20750;-79
2024/04/12 05:09:18;;;;;;;19.17;11.47;;;16.30;99.90;;;;;;7306386;19;20185;-80
2024/04/12 05:11:45;;;;;;;18.50;9.70;;;16.30;99.90;;;;;;7261350;19;20188;-80
2024/04/12 05:14:41;;;;;;;21.50;11.07;;;16.40;99.90;;;;;;7304823;19;20197;-80
2024/04/12 05:17:09;;;;;;;21.07;10.57;;;16.40;99.90;;;;;;7282769;19;20188;-80
2024/04/12 05:19:47;;;;;;;17.17;10.03;;;16.40;99.90;;;;;;7283675;19;20654;-80
2024/04/12 05:22:19;;;;;;;20.53;10.33;;;16.40;99.90;;;;;;7263596;19;20196;-80
2024/04/12 05:24:52;;;;;;;21.43;9.87;;;16.50;99.90;;;;;;7282083;19;20185;-80
2024/04/12 05:27:18;;;;;;;23.03;9.10;;;16.50;99.90;;;;;;7284702;19;20209;-81
2024/04/12 05:29:45;;;;;;;17.80;9.63;;;16.50;99.90;;;;;;7280931;19;20808;-80
2024/04/12 05:32:12;;;;;;;23.17;9.87;;;16.60;99.90;;;;;;7302438;19;20197;-82
2024/04/12 05:34:40;;;;;;;16.17;9.13;;;16.60;99.90;;;;;;7283196;19;20198;-82
2024/04/12 05:37:08;;;;;;;21.20;9.53;;;16.70;99.90;;;;;;7282715;19;20571;-81
2024/04/12 05:39:35;;;;;;;20.37;9.27;;;16.70;99.90;;;;;;7281685;19;20200;-81
2024/04/12 05:42:05;;;;;;;20.03;8.60;;;16.80;99.90;;;;;;7280413;19;20209;-81
2024/04/12 05:44:34;;;;;;;18.93;8.97;;;16.80;99.90;;;;;;7282478;19;20278;-79
2024/04/12 05:47:06;;;;;;;19.33;8.90;;;16.90;99.90;;;;;;7282186;19;20193;-80
2024/04/12 05:49:33;;;;;;;18.33;8.70;;;17.00;99.90;;;;;;7279202;19;20637;-79
2024/04/12 05:52:03;;;;;;;20.57;8.83;;;16.90;99.90;;;;;;7280836;19;20189;-80
2024/04/12 05:54:44;;;;;;;17.87;8.23;;;17.00;99.90;;;;;;7282550;19;20619;-80
2024/04/12 05:57:11;;;;;;;16.80;8.90;;;17.00;99.90;;;;;;7279594;19;20194;-81
2024/04/12 05:59:41;;;;;;;16.13;7.87;;;17.00;99.90;;;;;;7281122;19;20660;-80
2024/04/12 06:02:09;;;;;;;15.60;8.17;;;17.10;99.90;;;;;;7283660;19;20667;-79
2024/04/12 06:04:36;;;;;;;14.67;8.00;;;17.00;99.90;;;;;;7281062;19;20686;-79
2024/04/12 06:07:11;;;;;;;19.13;8.07;;;17.00;99.90;;;;;;7283032;19;20204;-79
2024/04/12 06:09:37;;;;;;;14.00;7.20;;;17.00;99.90;;;;;;7280061;19;20211;-79
2024/04/12 06:12:06;;;;;;;16.70;7.80;;;17.00;99.90;;;;;;7281962;19;20181;-79
2024/04/12 06:14:33;;;;;;;16.97;7.97;;;17.00;99.90;;;;;;7281713;19;20197;-79
2024/04/12 06:17:04;;;;;;;20.00;8.10;;;17.10;99.90;;;;;;7280838;19;20215;-78
2024/04/12 06:19:37;;;;;;;17.03;7.87;;;17.10;99.90;;;;;;7281089;19;20188;-78
2024/04/12 06:22:03;;;;;;;17.20;7.50;;;17.30;99.90;;;;;;7276865;19;20678;-78
2024/04/12 06:24:29;;;;;;;19.03;7.77;;;17.30;99.90;;;;;;7279844;19;20955;-78
2024/04/12 06:27:09;;;;;;;17.17;8.00;;;17.30;99.90;;;;;;7280191;19;20197;-78
2024/04/12 06:29:37;;;;;;;16.03;8.23;;;17.40;99.90;;;;;;7277811;19;20188;-79
2024/04/12 06:32:09;;;;;;;24.57;11.60;;;17.50;99.90;;;;;;7279737;19;20182;-78
2024/04/12 06:34:37;;;;;;;13.20;6.70;;;17.60;99.90;;;;;;7279390;19;20189;-78
2024/04/12 06:37:27;;;;;;;14.30;6.93;;;17.70;99.90;;;;;;7174401;19;2004684;-79
2024/04/12 06:40:03;;;;;;;16.37;6.73;;;17.80;99.90;;;;;;7280669;19;20184;-79
2024/04/12 06:42:29;;;;;;;15.67;6.70;;;17.80;99.90;;;;;;7284029;19;20187;-80
2024/04/12 06:44:55;;;;;;;14.67;6.43;;;17.80;99.90;;;;;;7278381;19;20196;-79
2024/04/12 06:47:25;;;;;;;18.57;6.50;;;17.80;99.90;;;;;;7280091;19;20189;-78
2024/04/12 06:49:52;;;;;;;14.53;6.40;;;18.00;99.90;;;;;;7280403;19;20200;-79
2024/04/12 06:52:22;;;;;;;12.93;5.80;;;18.00;99.90;;;;;;7278539;19;20184;-79
2024/04/12 06:54:48;;;;;;;16.13;6.00;;;18.00;99.90;;;;;;7282304;19;20309;-79
2024/04/12 06:57:19;;;;;;;15.07;5.67;;;18.00;99.90;;;;;;7285270;19;20185;-78
2024/04/12 06:59:53;;;;;;;13.70;6.53;;;18.10;99.90;;;;;;7287129;19;20663;-79
2024/04/12 07:02:23;;;;;;;14.43;6.20;;;18.10;99.90;;;;;;7286528;19;20197;-78
2024/04/12 07:04:54;;;;;;;13.70;6.37;;;17.90;99.90;;;;;;7285385;19;20195;-78
2024/04/12 07:07:24;;;;;;;15.30;6.00;;;17.90;99.90;;;;;;7287539;19;20589;-81
2024/04/12 07:09:59;;;;;;;13.60;5.87;;;17.90;99.90;;;;;;7286256;19;20192;-78
2024/04/12 07:12:31;;;;;;;18.57;6.30;;;17.90;99.90;;;;;;7286854;19;20193;-79
2024/04/12 07:14:57;;;;;;;14.57;5.57;;;17.90;99.90;;;;;;7275851;19;20213;-79
2024/04/12 07:17:25;;;;;;;16.00;6.47;;;17.80;99.90;;;;;;7275963;19;20192;-78
2024/04/12 07:19:53;;;;;;;12.97;5.83;;;17.90;99.90;;;;;;7286360;19;20385;-78
2024/04/12 07:22:21;;;;;;;15.27;5.83;;;18.00;99.90;;;;;;7282242;19;20188;-79
2024/04/12 07:24:47;;;;;;;13.37;5.87;;;18.00;99.90;;;;;;7283867;19;20197;-79
2024/04/12 07:27:16;;;;;;;11.97;5.80;;;18.10;99.90;;;;;;7284534;19;20240;-78
2024/04/12 07:29:46;;;;;;;17.93;6.00;;;18.20;99.90;;;;;;7301612;19;20200;-78
2024/04/12 07:32:13;;;;;;;12.33;5.03;;;18.20;99.90;;;;;;7305332;19;20820;-78
2024/04/12 07:34:49;;;;;;;12.13;5.80;;;18.30;99.90;;;;;;7309118;19;20213;-79
2024/04/12 07:37:31;;;;;;;14.90;5.17;;;18.30;99.90;;;;;;7262815;19;20200;-79
2024/04/12 07:42:47;;;;;;;11.57;5.13;;;18.40;99.90;;;;;;7268069;19;20192;-79
2024/04/12 07:45:17;;;;;;;13.77;5.00;;;18.60;99.90;;;;;;7298510;19;20212;-78
2024/04/12 07:47:53;;;;;;;13.17;5.17;;;18.60;99.90;;;;;;7297744;19;20578;-78
2024/04/12 07:50:30;;;;;;;10.33;4.43;;;18.70;99.90;;;;;;7282001;19;20293;-77
2024/04/12 07:55:45;;;;;;;15.83;4.83;;;18.90;99.90;;;;;;7265054;19;20192;-78
2024/04/12 07:58:12;;;;;;;16.03;4.80;;;19.00;99.90;;;;;;7308593;19;20298;-78
2024/04/12 08:00:48;;;;;;;12.00;4.40;;;19.10;99.90;;;;;;7286216;19;20195;-78
2024/04/12 08:03:17;;;;;;;15.03;4.30;;;19.10;99.90;;;;;;7262030;19;20194;-78
2024/04/12 08:06:04;;;;;;;11.47;4.60;;;19.10;99.90;;;;;;7294116;19;20194;-79
2024/04/12 08:09:03;;;;;;;15.00;4.80;;;19.20;99.90;;;;;;7283026;19;20197;-82
2024/04/12 08:11:35;;;;;;;14.13;4.67;;;19.30;99.90;;;;;;7179414;19;2004531;-82
2024/04/12 08:14:05;;;;;;;12.20;4.20;;;19.30;99.90;;;;;;7279515;19;20203;-82
2024/04/12 08:16:39;;;;;;;10.13;4.17;;;19.50;99.90;;;;;;7280988;19;20287;-82
2024/04/12 08:19:13;;;;;;;10.63;4.13;;;19.90;99.90;;;;;;7267550;19;20979;-82
2024/04/12 08:21:43;;;;;;;11.10;3.93;;;20.50;99.90;;;;;;7287102;19;20185;-81
2024/04/12 08:24:14;;;;;;;11.20;3.33;;;21.30;99.90;;;;;;7284503;19;20193;-82
2024/04/12 08:26:46;;;;;;;10.23;3.70;;;22.10;99.90;;;;;;7284432;19;20210;-81
2024/04/12 08:38:27;;;;;;;9.45;2.60;;;26.10;99.90;;;;;;7303240;19;20230;-83
2024/04/12 08:40:56;;;;;;;11.50;2.90;;;27.20;99.90;;;;;;7284204;19;20904;-82
2024/04/12 08:43:41;;;;;;;10.77;2.60;;;28.10;99.90;;;;;;7284849;19;20191;-82
2024/04/12 08:46:17;;;;;;;9.30;2.60;;;28.00;99.90;;;;;;7284276;19;20189;-83
2024/04/12 08:48:46;;;;;;;8.80;2.25;;;28.10;99.90;;;;;;7281042;19;20189;-81
2024/04/12 08:51:21;;;;;;;11.07;2.65;;;28.80;99.90;;;;;;7308045;19;20205;-81
2024/04/12 08:53:55;;;;;;;6.68;2.17;;;28.40;99.90;;;;;;7262268;19;20318;-82
2024/04/12 08:56:28;;;;;;;7.88;2.40;;;28.20;99.90;;;;;;7281864;19;20205;-82
2024/04/12 08:59:05;;;;;;;7.07;2.25;;;29.00;99.90;;;;;;7282381;19;20193;-83
2024/04/12 09:01:33;;;;;;;7.78;2.40;;;30.20;99.90;;;;;;7286529;19;20189;-83
2024/04/12 09:04:04;;;;;;;8.15;2.35;;;29.70;99.90;;;;;;7284423;19;20248;-82
2024/04/12 09:06:34;;;;;;;9.00;2.67;;;29.40;99.90;;;;;;7282908;19;20199;-82
2024/04/12 09:09:01;;;;;;;8.02;2.50;;;29.90;99.90;;;;;;7283383;19;20185;-83
2024/04/12 09:11:31;;;;;;;8.23;2.70;;;30.30;99.90;;;;;;7284811;19;20198;-82
2024/04/12 09:14:08;;;;;;;10.60;2.80;;;30.50;99.90;;;;;;7282974;19;20207;-82
2024/04/12 09:16:44;;;;;;;10.60;2.67;;;30.30;99.90;;;;;;7283721;19;20192;-82
2024/04/12 09:19:14;;;;;;;10.88;3.00;;;30.70;99.90;;;;;;7279768;19;20561;-82
2024/04/12 09:21:58;;;;;;;11.68;3.13;;;30.70;99.90;;;;;;7287173;19;20268;-82
2024/04/12 09:24:31;;;;;;;10.18;3.50;;;30.50;99.90;;;;;;7176087;19;2004790;-82
2024/04/12 09:27:09;;;;;;;9.55;3.35;;;30.30;99.90;;;;;;7279426;19;20193;-82
2024/04/12 09:29:45;;;;;;;8.63;3.08;;;30.90;99.90;;;;;;7282900;19;20959;-81
2024/04/12 09:35:02;;;;;;;8.77;3.28;;;32.20;99.90;;;;;;7178607;19;2004415;-82
2024/04/12 09:37:29;;;;;;;9.20;3.40;;;31.70;99.90;;;;;;7282754;19;20987;-82
2024/04/12 09:42:45;;;;;;;8.93;2.58;;;31.20;99.90;;;;;;7281573;19;20264;-82
2024/04/12 09:45:21;;;;;;;9.32;3.47;;;31.90;99.90;;;;;;7284997;19;20192;-82
2024/04/12 10:38:03;;;;;;;8.98;2.70;;;28.80;99.90;;;;;;7286978;19;20285;-85
2024/04/12 10:40:33;;;;;;;7.30;2.72;;;28.90;99.90;;;;;;7288734;19;20252;-85
2024/04/12 10:42:59;;;;;;;6.70;3.20;;;29.10;99.90;;;;;;7289169;19;20200;-84
2024/04/12 10:45:29;;;;;;;8.95;3.10;;;28.50;99.90;;;;;;7290651;19;20188;-86
2024/04/12 10:47:55;;;;;;;7.07;3.00;;;27.70;99.90;;;;;;7287340;19;20200;-84
2024/04/12 10:50:27;;;;;;;8.10;3.35;;;27.70;99.90;;;;;;7287300;19;20203;-85
2024/04/12 10:52:57;;;;;;;8.63;3.35;;;27.70;99.90;;;;;;7331552;19;20197;-84
2024/04/12 10:55:29;;;;;;;8.27;3.13;;;27.20;99.90;;;;;;7291479;19;20185;-86
2024/04/12 10:57:56;;;;;;;9.80;3.25;;;26.80;99.90;;;;;;7286750;19;20197;-86
2024/04/12 11:00:28;;;;;;;7.97;3.30;;;27.10;99.90;;;;;;7288530;19;20265;-85
2024/04/12 11:02:59;;;;;;;8.32;2.67;;;27.80;99.90;;;;;;7290092;19;20248;-85
2024/04/12 11:05:38;;;;;;;8.82;3.08;;;28.30;99.90;;;;;;7289104;19;20189;-85
2024/04/12 11:08:08;;;;;;;7.05;2.63;;;29.10;99.90;;;;;;7290239;19;20181;-85
2024/04/12 11:10:54;;;;;;;10.48;3.40;;;30.50;99.90;;;;;;7290927;19;20198;-85
2024/04/12 11:13:28;;;;;;;7.55;3.25;;;31.10;99.90;;;;;;7188399;19;2004579;-85
2024/04/12 11:32:16;;;;;;;8.20;2.88;;;28.70;99.90;;;;;;7266963;19;20181;-85
2024/04/12 11:34:42;;;;;;;8.82;3.15;;;29.80;99.90;;;;;;7310022;19;20672;-86
2024/04/12 11:37:13;;;;;;;8.60;2.92;;;30.50;99.90;;;;;;7287303;19;20185;-86
2024/04/12 11:39:41;;;;;;;10.82;2.92;;;30.20;99.90;;;;;;7286089;19;20189;-85
2024/04/12 11:42:11;;;;;;;13.15;3.40;;;30.30;99.90;;;;;;7288389;19;20192;-86
2024/04/12 11:44:36;;;;;;;10.57;2.70;;;31.30;99.90;;;;;;7286901;19;20205;-86
2024/04/12 11:47:03;;;;;;;10.10;2.72;;;29.60;99.30;;;;;;7291691;19;20189;-85
2024/04/12 11:49:41;;;;;;;6.90;2.58;;;28.90;99.90;;;;;;7287091;19;20652;-85
2024/04/12 11:52:18;;;;;;;6.63;2.47;;;27.90;99.90;;;;;;7287048;19;20719;-85
2024/04/12 11:54:51;;;;;;;7.80;2.83;;;28.50;99.90;;;;;;7282289;19;20176;-82
2024/04/12 11:57:19;;;;;;;9.55;2.53;;;28.20;99.90;;;;;;7287571;19;20680;-86
2024/04/12 11:59:46;;;;;;;8.52;2.70;;;28.20;99.90;;;;;;7289355;19;20699;-85
2024/04/12 12:02:15;;;;;;;9.43;2.88;;;28.70;99.90;;;;;;7309073;19;20640;-85
2024/04/12 12:04:41;;;;;;;9.70;2.65;;;27.90;99.90;;;;;;7286850;19;20195;-85
2024/04/12 12:07:09;;;;;;;11.13;2.50;;;27.80;99.90;;;;;;7287636;19;20301;-85
2024/04/12 12:09:39;;;;;;;10.63;2.50;;;28.80;99.90;;;;;;7288575;19;20196;-86
2024/04/12 12:12:10;;;;;;;11.50;3.08;;;29.20;99.90;;;;;;7284592;19;20189;-86
2024/04/12 12:14:43;;;;;;;11.32;2.40;;;29.10;99.90;;;;;;7287154;19;20659;-86
2024/04/12 12:17:10;;;;;;;11.52;2.90;;;28.60;99.90;;;;;;7286309;19;20185;-84
2024/04/12 12:19:36;;;;;;;9.45;3.10;;;27.10;99.90;;;;;;7287073;19;20200;-85
2024/04/12 12:22:02;;;;;;;9.02;2.45;;;26.30;99.90;;;;;;7284556;19;20181;-85
2024/04/12 12:24:37;;;;;;;11.02;2.55;;;26.30;99.90;;;;;;7286358;19;20196;-85
2024/04/12 12:27:08;;;;;;;8.10;2.33;;;26.90;99.90;;;;;;7287171;19;20196;-85
2024/04/12 12:29:48;;;;;;;9.88;2.88;;;28.20;99.90;;;;;;7285635;19;20224;-86
2024/04/12 12:32:14;;;;;;;9.25;2.35;;;28.20;99.90;;;;;;7275621;19;20693;-84
2024/04/12 12:34:43;;;;;;;9.68;2.85;;;28.30;99.90;;;;;;7307707;19;20196;-84
2024/04/12 12:37:09;;;;;;;8.88;2.55;;;28.20;99.90;;;;;;7285630;19;20656;-85
2024/04/12 12:39:37;;;;;;;8.80;2.80;;;27.50;99.90;;;;;;7285689;19;20196;-85
2024/04/12 12:42:09;;;;;;;11.10;3.40;;;27.40;99.90;;;;;;7285464;19;20189;-85
2024/04/12 12:44:36;;;;;;;8.80;2.45;;;27.50;99.90;;;;;;7285718;19;20178;-85
2024/04/12 12:47:02;;;;;;;7.85;2.70;;;27.60;99.90;;;;;;7285048;19;20205;-85
2024/04/12 12:49:39;;;;;;;8.57;2.80;;;27.60;99.90;;;;;;7284026;19;20230;-85
2024/04/12 12:52:12;;;;;;;9.50;2.70;;;27.60;99.90;;;;;;7285270;19;20192;-85
2024/04/12 12:54:41;;;;;;;11.55;2.70;;;27.20;99.90;;;;;;7287260;19;20204;-86
2024/04/12 12:57:11;;;;;;;11.00;2.90;;;27.20;99.90;;;;;;7283942;19;20185;-85
2024/04/12 12:59:40;;;;;;;7.00;2.70;;;27.00;99.90;;;;;;7285587;19;20181;-85
2024/04/12 13:02:15;;;;;;;11.65;2.80;;;26.90;99.90;;;;;;7286415;19;20180;-85
2024/04/12 13:04:42;;;;;;;11.23;2.80;;;26.70;99.90;;;;;;7286272;19;20229;-85
2024/04/12 13:07:08;;;;;;;9.52;2.50;;;26.50;99.90;;;;;;7283511;19;20292;-85
2024/04/12 13:09:35;;;;;;;10.30;3.00;;;26.60;99.90;;;;;;7284873;19;20603;-85
2024/04/12 13:12:05;;;;;;;10.77;2.90;;;26.40;99.90;;;;;;7285872;19;20553;-85
2024/04/12 13:14:32;;;;;;;11.02;2.90;;;25.90;99.90;;;;;;7283981;19;20568;-85
2024/04/12 13:16:57;;;;;;;9.45;3.63;;;25.80;99.90;;;;;;7282849;19;20196;-85
2024/04/12 13:19:23;;;;;;;8.82;2.83;;;25.60;99.90;;;;;;7284701;19;20212;-85
2024/04/12 13:21:49;;;;;;;8.68;2.95;;;25.50;99.90;;;;;;7285859;19;20199;-85
2024/04/12 13:24:15;;;;;;;11.93;3.28;;;25.40;99.90;;;;;;7289059;19;20189;-85
2024/04/12 13:26:50;;;;;;;11.38;3.10;;;25.50;99.90;;;;;;7305389;19;20249;-85
2024/04/12 13:29:17;;;;;;;8.23;3.05;;;25.80;99.90;;;;;;7263443;19;20188;-85
2024/04/12 13:31:45;;;;;;;11.48;3.08;;;25.30;99.90;;;;;;7305799;19;20849;-85
2024/04/12 13:34:11;;;;;;;8.60;3.10;;;25.20;99.90;;;;;;7285080;19;20211;-83
2024/04/12 13:36:37;;;;;;;9.30;3.22;;;25.10;99.90;;;;;;7283218;19;20192;-83
2024/04/12 13:39:12;;;;;;;11.73;3.72;;;24.80;99.90;;;;;;7284064;19;20276;-85
2024/04/12 13:41:40;;;;;;;12.67;3.60;;;24.40;99.90;;;;;;7284003;19;20188;-84
2024/04/12 13:44:08;;;;;;;12.60;3.30;;;24.40;99.90;;;;;;7282921;19;20898;-84
2024/04/12 13:52:03;;;;;;;11.55;3.80;;;24.80;99.90;;;;;;7285546;19;20188;-85
2024/04/12 13:54:30;;;;;;;10.38;3.30;;;25.20;99.90;;;;;;7287292;19;20201;-85
2024/04/12 13:56:56;;;;;;;11.88;3.75;;;25.00;99.90;;;;;;7283891;19;20605;-86
2024/04/12 13:59:23;;;;;;;8.35;3.03;;;25.40;99.90;;;;;;7285069;19;20177;-86
2024/04/12 14:01:49;;;;;;;9.38;3.55;;;25.60;99.90;;;;;;7285881;19;20272;-86
2024/04/12 14:04:18;;;;;;;10.57;3.08;;;25.80;99.90;;;;;;7288054;19;20193;-85
2024/04/12 14:06:48;;;;;;;7.60;3.22;;;26.00;99.90;;;;;;7304726;19;20212;-81
2024/04/12 14:09:21;;;;;;;9.07;3.38;;;25.80;99.90;;;;;;7305039;19;20197;-81
2024/04/12 14:11:50;;;;;;;9.20;2.70;;;25.70;99.90;;;;;;7282550;19;20188;-85
2024/04/12 14:14:20;;;;;;;11.23;3.10;;;25.80;99.90;;;;;;7285596;19;20185;-84
2024/04/12 14:16:47;;;;;;;10.27;3.30;;;25.90;99.90;;;;;;7289182;19;20209;-84
2024/04/12 14:19:19;;;;;;;9.63;3.25;;;25.70;99.90;;;;;;7308369;19;20197;-86
2024/04/12 14:21:51;;;;;;;8.93;3.40;;;25.60;99.90;;;;;;7273128;19;20204;-85
2024/04/12 14:27:04;;;;;;;10.75;3.30;;;24.90;99.90;;;;;;7289446;19;20188;-85
2024/04/12 14:29:34;;;;;;;11.50;3.38;;;25.10;99.90;;;;;;7289132;19;20199;-86